Time;durP1;ratioP1;P1;durP2;ratioP2;P2;SDS_P1;SDS_P2;PMS_P1;PMS_P2;Temp;Humidity;BMP_temperature;BMP_pressure;BME280_temperature;BME280_humidity;BME280_pressure;Samples;Min_cycle;Max_cycle;Signal;HPM_P1;HPM_P2
2022/03/08 00:00:33;;;;;;;11.48;6.95;;;;;;;-2.01;64.24;102192.88;10337049;28;20089;-78
2022/03/08 00:05:33;;;;;;;10.88;6.68;;;;;;;-1.96;63.86;102190.16;10364256;28;20045;-78
2022/03/08 00:10:34;;;;;;;13.80;7.38;;;;;;;-2.00;64.21;102182.81;10301988;28;20474;-78
2022/03/08 00:15:35;;;;;;;11.30;6.45;;;;;;;-1.99;64.27;102179.53;10347789;28;20042;-78
2022/03/08 00:20:36;;;;;;;12.57;7.13;;;;;;;-1.99;64.21;102176.03;10348842;28;20034;-78
2022/03/08 00:25:36;;;;;;;13.63;8.15;;;;;;;-1.95;63.38;102173.09;10326338;28;20030;-78
2022/03/08 00:30:38;;;;;;;15.48;7.68;;;;;;;-2.16;64.87;102172.38;10335699;28;20049;-78
2022/03/08 00:35:38;;;;;;;12.13;7.20;;;;;;;-2.12;64.48;102173.66;10319120;28;20030;-78
2022/03/08 00:40:39;;;;;;;13.05;7.53;;;;;;;-2.31;64.42;102180.78;10339713;28;20439;-78
2022/03/08 00:45:39;;;;;;;11.15;7.15;;;;;;;-2.53;65.66;102180.75;10325981;28;20058;-78
2022/03/08 00:50:40;;;;;;;12.82;8.00;;;;;;;-2.45;65.40;102181.72;10326270;28;20122;-78
2022/03/08 00:55:40;;;;;;;12.77;7.45;;;;;;;-2.43;65.03;102183.72;10306358;28;20490;-78
2022/03/08 01:00:41;;;;;;;13.13;8.37;;;;;;;-2.39;64.71;102167.97;10345208;28;20024;-78
2022/03/08 01:05:41;;;;;;;13.27;7.07;;;;;;;-2.56;65.60;102182.94;10324202;28;20038;-78
2022/03/08 01:10:42;;;;;;;17.27;8.33;;;;;;;-2.75;66.36;102175.59;10339287;28;20054;-78
2022/03/08 01:15:42;;;;;;;14.88;7.97;;;;;;;-2.75;67.06;102164.44;10336766;28;20133;-78
2022/03/08 01:20:43;;;;;;;15.18;8.48;;;;;;;-2.97;67.81;102177.19;10331798;28;20058;-78
2022/03/08 01:25:43;;;;;;;16.13;9.27;;;;;;;-2.92;69.19;102175.16;10332112;28;20490;-78
2022/03/08 01:30:44;;;;;;;13.00;7.83;;;;;;;-2.98;68.57;102173.69;10365678;28;20116;-79
2022/03/08 01:35:45;;;;;;;13.17;8.27;;;;;;;-2.98;68.35;102173.69;10344148;28;20026;-79
2022/03/08 01:40:45;;;;;;;17.30;7.60;;;;;;;-3.11;68.88;102178.03;10352270;28;20050;-79
2022/03/08 01:45:46;;;;;;;17.30;8.33;;;;;;;-3.36;69.28;102169.88;10303982;28;20061;-79
2022/03/08 01:50:47;;;;;;;12.43;7.27;;;;;;;-3.54;69.89;102166.84;10334436;28;20065;-79
2022/03/08 01:55:47;;;;;;;9.20;5.87;;;;;;;-3.54;70.15;102161.75;10314118;28;20031;-78
2022/03/08 02:00:48;;;;;;;13.47;8.23;;;;;;;-3.52;69.88;102153.34;10337511;28;20030;-78
2022/03/08 02:05:48;;;;;;;15.73;9.87;;;;;;;-3.60;72.36;102139.59;10322286;28;20577;-78
2022/03/08 02:10:51;;;;;;;16.23;8.67;;;;;;;-3.47;73.57;102139.47;10322815;28;20108;-78
2022/03/08 02:15:52;;;;;;;18.15;7.90;;;;;;;-3.49;73.55;102135.78;10317017;28;20446;-78
2022/03/08 02:20:52;;;;;;;14.90;8.90;;;;;;;-3.60;74.50;102116.56;10346954;28;20068;-78
2022/03/08 02:25:53;;;;;;;12.53;7.03;;;;;;;-3.64;75.47;102107.56;10312573;28;20066;-78
2022/03/08 02:30:53;;;;;;;12.90;8.47;;;;;;;-3.62;74.74;102100.09;10349403;28;20465;-78
2022/03/08 02:35:54;;;;;;;17.00;8.77;;;;;;;-3.43;72.88;102093.97;10312243;28;20062;-78
2022/03/08 02:40:54;;;;;;;12.20;8.63;;;;;;;-3.48;72.44;102094.13;10314641;28;20035;-78
2022/03/08 02:45:55;;;;;;;15.67;7.17;;;;;;;-3.86;72.87;102097.22;10313013;28;20078;-78
2022/03/08 02:50:55;;;;;;;15.03;7.63;;;;;;;-4.14;74.00;102101.44;10336213;28;20034;-78
2022/03/08 02:55:56;;;;;;;13.33;8.73;;;;;;;-4.15;75.21;102102.16;10357777;28;20354;-78
2022/03/08 03:00:57;;;;;;;9.50;6.50;;;;;;;-4.35;75.27;102093.59;10369145;28;20121;-78
2022/03/08 03:05:57;;;;;;;19.70;10.03;;;;;;;-4.41;76.67;102093.75;10360269;28;20037;-78
2022/03/08 03:10:58;;;;;;;14.93;7.13;;;;;;;-4.45;76.99;102084.75;10334236;28;20058;-78
2022/03/08 03:15:58;;;;;;;18.13;9.90;;;;;;;-4.60;77.26;102077.69;10338283;28;20382;-78
2022/03/08 03:20:59;;;;;;;15.77;8.20;;;;;;;-4.75;76.89;102075.03;10345883;28;20057;-78
2022/03/08 03:25:59;;;;;;;12.03;6.77;;;;;;;-4.78;77.39;102078.84;10319968;28;20496;-78
2022/03/08 03:31:00;;;;;;;15.63;8.90;;;;;;;-4.69;78.06;102068.88;10342988;28;20065;-78
2022/03/08 03:36:00;;;;;;;16.67;7.37;;;;;;;-4.65;79.88;102054.13;10343730;28;20535;-79
2022/03/08 03:41:00;;;;;;;15.10;8.93;;;;;;;-4.49;80.29;102048.41;10310432;28;20054;-78
2022/03/08 03:46:01;;;;;;;21.37;9.57;;;;;;;-4.48;80.32;102048.59;10363674;28;20057;-79
2022/03/08 03:51:02;;;;;;;11.47;7.90;;;;;;;-4.28;79.70;102040.91;10321180;28;20454;-79
2022/03/08 03:56:03;;;;;;;13.20;7.97;;;;;;;-4.30;78.58;102046.53;10376186;28;20030;-78
2022/03/08 04:01:04;;;;;;;14.90;9.03;;;;;;;-4.32;78.30;102043.78;10323771;28;20089;-78
2022/03/08 04:06:04;;;;;;;12.37;8.30;;;;;;;-4.42;78.38;102039.16;10335239;28;20437;-78
2022/03/08 04:11:05;;;;;;;16.90;9.33;;;;;;;-4.29;77.28;102036.50;10350357;28;20049;-78
2022/03/08 04:16:05;;;;;;;17.03;8.47;;;;;;;-4.39;76.91;102032.59;10332881;28;20148;-78
2022/03/08 04:21:06;;;;;;;13.13;7.00;;;;;;;-4.32;76.31;102035.19;10359201;28;20079;-78
2022/03/08 04:26:06;;;;;;;14.20;8.17;;;;;;;-4.51;77.12;102029.41;10316218;28;20064;-78
2022/03/08 04:31:07;;;;;;;16.23;9.23;;;;;;;-4.52;79.31;102022.47;10334833;28;20458;-79
2022/03/08 04:36:07;;;;;;;16.90;8.77;;;;;;;-4.62;79.72;102022.94;10351842;28;20121;-78
2022/03/08 04:41:08;;;;;;;14.83;9.03;;;;;;;-4.67;80.46;102024.00;10318556;28;20035;-78
2022/03/08 04:46:09;;;;;;;14.67;8.93;;;;;;;-4.75;80.29;102029.03;10307720;28;20055;-78
2022/03/08 04:51:10;;;;;;;15.82;8.55;;;;;;;-4.87;80.66;102030.03;10324829;28;20038;-78
2022/03/08 04:56:10;;;;;;;16.70;9.07;;;;;;;-4.89;79.89;102026.38;10337383;28;20102;-79
2022/03/08 05:01:11;;;;;;;18.80;10.13;;;;;;;-4.92;80.09;102018.31;10329830;28;20584;-78
2022/03/08 05:06:14;;;;;;;16.58;10.43;;;;;;;-4.91;79.70;102022.69;10335222;28;20154;-79
2022/03/08 05:11:14;;;;;;;15.13;9.47;;;;;;;-4.93;80.12;102025.06;10370110;28;20127;-79
2022/03/08 05:16:15;;;;;;;17.97;9.77;;;;;;;-5.00;80.42;102022.44;10334437;28;20061;-78
2022/03/08 05:21:15;;;;;;;14.70;9.70;;;;;;;-4.87;81.26;102028.41;10333722;28;20033;-78
2022/03/08 05:26:16;;;;;;;17.13;10.13;;;;;;;-4.91;81.88;102022.69;10332808;28;20123;-79
2022/03/08 05:31:16;;;;;;;17.97;10.93;;;;;;;-4.89;82.18;102021.25;10356868;28;21778;-78
2022/03/08 05:36:17;;;;;;;21.70;9.20;;;;;;;-4.76;81.99;102019.53;10303207;28;20048;-78
2022/03/08 05:41:17;;;;;;;12.47;7.90;;;;;;;-4.66;81.67;102021.66;10336837;28;20073;-78
2022/03/08 05:46:18;;;;;;;14.93;6.10;;;;;;;-4.54;80.36;102019.72;10324464;28;20144;-78
2022/03/08 05:51:18;;;;;;;16.47;9.97;;;;;;;-4.51;80.18;102025.22;10350404;28;20033;-78
2022/03/08 05:56:19;;;;;;;15.97;8.77;;;;;;;-4.39;79.23;102014.69;10353227;28;20112;-78
2022/03/08 06:01:19;;;;;;;15.87;8.10;;;;;;;-4.40;79.35;102010.31;10326486;28;20181;-78
2022/03/08 06:06:20;;;;;;;15.70;9.43;;;;;;;-4.11;78.11;102018.16;10336821;28;20026;-77
2022/03/08 06:11:20;;;;;;;11.67;6.53;;;;;;;-4.10;77.49;102025.09;10329279;28;20062;-78
2022/03/08 06:16:21;;;;;;;13.27;8.03;;;;;;;-4.06;76.76;102030.81;10313967;28;20088;-76
2022/03/08 06:21:22;;;;;;;17.63;8.23;;;;;;;-3.83;75.38;102042.97;10353818;28;20455;-77
2022/03/08 06:26:23;;;;;;;12.77;8.07;;;;;;;-3.89;75.05;102042.22;10335535;28;20065;-78
2022/03/08 06:31:23;;;;;;;11.80;6.10;;;;;;;-3.62;74.31;102039.56;10339878;28;20397;-79
2022/03/08 06:36:24;;;;;;;18.37;8.27;;;;;;;-3.54;73.78;102035.41;10362831;28;20035;-79
2022/03/08 06:41:26;;;;;;;14.87;7.17;;;;;;;-3.39;73.79;102041.47;10306238;28;20058;-79
2022/03/08 06:46:26;;;;;;;14.57;8.10;;;;;;;-3.14;72.85;102026.53;10342310;28;20560;-80
2022/03/08 06:51:27;;;;;;;10.40;5.23;;;;;;;-2.70;70.96;102018.16;10391358;28;20039;-79
2022/03/08 06:56:29;;;;;;;12.00;6.72;;;;;;;-1.83;68.49;102014.53;10346456;28;20481;-80
2022/03/08 07:01:29;;;;;;;13.15;7.30;;;;;;;-1.40;65.32;102019.44;10338689;28;20100;-79
2022/03/08 07:06:30;;;;;;;11.02;6.97;;;;;;;-1.08;64.57;102003.28;10323012;28;20030;-79
2022/03/08 07:11:31;;;;;;;16.90;8.25;;;;;;;0.05;62.06;102004.41;10343287;28;20049;-79
2022/03/08 07:16:31;;;;;;;8.43;5.47;;;;;;;2.13;55.97;101997.41;10325297;28;20469;-79
2022/03/08 07:21:32;;;;;;;17.50;6.90;;;;;;;3.55;50.41;102004.09;10331463;28;20037;-80
2022/03/08 07:26:33;;;;;;;10.57;6.65;;;;;;;3.95;48.90;102013.94;10342552;28;20378;-81
2022/03/08 07:31:33;;;;;;;14.10;6.38;;;;;;;3.92;47.48;101997.19;10319137;28;20052;-83
2022/03/08 07:36:34;;;;;;;11.68;6.75;;;;;;;4.70;46.69;101997.31;10335542;28;20128;-79
2022/03/08 07:41:35;;;;;;;9.25;6.28;;;;;;;6.07;42.49;101994.38;10340760;28;20038;-80
2022/03/08 07:46:36;;;;;;;13.25;8.02;;;;;;;6.88;40.09;101994.06;10318690;28;20101;-79
2022/03/08 07:51:36;;;;;;;15.52;5.75;;;;;;;7.22;40.28;102006.25;10330651;28;20153;-82
2022/03/08 07:56:37;;;;;;;8.60;6.18;;;;;;;5.90;40.80;101998.13;10334685;28;20045;-79
2022/03/08 08:01:37;;;;;;;8.90;5.47;;;;;;;4.31;44.09;102011.09;10316928;28;20053;-80
2022/03/08 08:06:37;;;;;;;11.40;7.45;;;;;;;3.43;46.63;102025.47;10339478;28;20389;-80
2022/03/08 08:11:38;;;;;;;8.88;6.45;;;;;;;3.11;47.26;102018.13;10362694;28;20036;-79
2022/03/08 08:16:39;;;;;;;10.02;6.05;;;;;;;2.99;47.85;102023.06;10342689;28;20513;-79
2022/03/08 08:21:39;;;;;;;9.55;5.90;;;;;;;3.11;47.71;102023.31;10326400;28;20054;-78
2022/03/08 08:26:42;;;;;;;12.38;7.18;;;;;;;3.15;47.58;102012.50;10313087;28;20068;-79
2022/03/08 08:31:43;;;;;;;8.80;5.82;;;;;;;3.38;46.78;102018.94;10350015;28;20117;-83
2022/03/08 08:36:46;;;;;;;8.90;5.80;;;;;;;3.52;47.12;102013.41;10300787;28;20144;-80
2022/03/08 08:41:47;;;;;;;10.02;6.15;;;;;;;3.55;46.86;102032.59;10339660;28;20382;-82
2022/03/08 08:46:47;;;;;;;13.30;5.85;;;;;;;3.74;46.20;102025.78;10352216;28;20046;-83
2022/03/08 08:51:49;;;;;;;13.18;6.13;;;;;;;3.99;45.43;101998.69;10355332;28;20053;-82
2022/03/08 08:56:49;;;;;;;9.55;4.90;;;;;;;4.19;45.62;102008.28;10354615;28;20084;-79
2022/03/08 09:01:50;;;;;;;9.45;6.05;;;;;;;4.26;45.43;101998.63;10353977;28;20034;-80
2022/03/08 09:06:50;;;;;;;12.10;6.28;;;;;;;4.36;44.18;101989.09;10320354;28;20243;-79
2022/03/08 09:11:51;;;;;;;9.68;5.90;;;;;;;4.66;44.04;101987.44;10320831;28;20129;-78
2022/03/08 09:16:52;;;;;;;8.93;5.05;;;;;;;4.76;43.59;101994.34;10345578;28;20548;-82
2022/03/08 09:21:52;;;;;;;6.80;5.10;;;;;;;4.85;42.24;101989.97;10313670;28;20168;-78
2022/03/08 09:26:53;;;;;;;9.90;5.45;;;;;;;5.10;42.30;101976.56;10349627;28;20062;-76
2022/03/08 09:31:53;;;;;;;9.60;5.50;;;;;;;5.35;41.28;101961.47;10334644;28;20089;-78
2022/03/08 09:36:54;;;;;;;11.02;5.70;;;;;;;6.41;39.56;101962.47;10362096;28;20085;-78
2022/03/08 09:41:56;;;;;;;9.40;5.40;;;;;;;8.66;36.86;101951.97;10380572;28;20036;-78
2022/03/08 09:46:56;;;;;;;7.57;4.70;;;;;;;10.06;32.99;101942.41;10305018;28;20061;-78
2022/03/08 09:51:57;;;;;;;8.90;5.20;;;;;;;11.68;29.93;101924.69;10335888;28;20033;-78
2022/03/08 09:56:57;;;;;;;9.02;5.03;;;;;;;12.46;29.06;101937.97;10338445;28;20529;-81
2022/03/08 10:01:58;;;;;;;8.45;5.20;;;;;;;13.66;27.19;101945.38;10317315;28;20109;-82
2022/03/08 10:06:58;;;;;;;10.32;4.85;;;;;;;13.13;28.47;101932.03;10323003;28;20032;-78
2022/03/08 10:11:59;;;;;;;14.25;5.07;;;;;;;12.93;27.82;101937.09;10401631;28;20099;-79
2022/03/08 10:16:59;;;;;;;7.40;4.88;;;;;;;13.56;26.64;101938.75;10394629;28;20068;-78
2022/03/08 10:22:00;;;;;;;9.45;5.47;;;;;;;13.81;26.67;101929.50;10389605;28;20029;-78
2022/03/08 10:27:01;;;;;;;5.03;4.03;;;;;;;13.39;27.37;101935.16;10353978;28;20083;-79
2022/03/08 10:32:21;;;;;;;13.67;5.97;;;;;;;11.84;28.31;101923.88;10353875;28;20034;-80
2022/03/08 10:37:24;;;;;;;7.80;4.68;;;;;;;13.98;26.66;101911.91;10346459;28;20285;-79
2022/03/08 10:42:29;;;;;;;9.38;4.70;;;;;;;14.41;26.60;101904.31;10301544;28;20043;-78
2022/03/08 10:47:40;;;;;;;7.22;4.63;;;;;;;14.37;25.40;101876.97;10339735;28;20375;-78
2022/03/08 10:52:43;;;;;;;6.47;4.30;;;;;;;13.76;25.62;101902.03;10327229;28;20035;-83
2022/03/08 10:57:56;;;;;;;6.60;4.13;;;;;;;14.89;26.15;101890.81;10345200;28;20031;-80
2022/03/08 11:03:00;;;;;;;6.93;4.82;;;;;;;13.98;25.54;101880.31;10330949;28;20088;-80
2022/03/08 11:08:01;;;;;;;8.80;5.40;;;;;;;12.82;27.25;101888.31;10326454;28;20066;-81
2022/03/08 11:13:01;;;;;;;9.75;4.40;;;;;;;12.75;26.67;101873.06;10318397;28;20472;-81
2022/03/08 11:18:06;;;;;;;8.27;5.03;;;;;;;14.07;25.92;101883.41;10331655;28;20036;-82
2022/03/08 11:23:07;;;;;;;12.50;4.90;;;;;;;13.34;25.96;101870.91;10344857;28;20022;-81
2022/03/08 11:28:08;;;;;;;8.52;4.35;;;;;;;13.69;26.41;101858.72;10341197;28;20029;-82
2022/03/08 11:33:20;;;;;;;10.48;4.43;;;;;;;14.65;25.84;101867.72;10358880;28;20026;-81
2022/03/08 11:38:20;;;;;;;11.93;4.40;;;;;;;14.28;26.10;101858.09;10340510;28;20032;-80
2022/03/08 11:43:35;;;;;;;8.55;4.50;;;;;;;14.78;24.83;101850.78;10319171;28;20537;-82
2022/03/08 11:48:35;;;;;;;8.48;5.55;;;;;;;14.50;26.06;101850.38;10325559;28;20065;-81
2022/03/08 11:53:36;;;;;;;8.82;4.45;;;;;;;14.18;25.15;101857.63;10359936;28;20066;-81
2022/03/08 11:58:44;;;;;;;7.75;4.97;;;;;;;14.16;25.87;101850.47;10319466;28;20069;-81
2022/03/08 12:03:46;;;;;;;7.95;4.63;;;;;;;15.58;25.42;101853.44;10285500;28;20363;-82
2022/03/08 12:08:47;;;;;;;7.10;4.87;;;;;;;15.59;24.83;101843.78;10332548;28;20133;-82
2022/03/08 12:13:47;;;;;;;8.32;4.40;;;;;;;14.85;25.12;101844.06;10335905;28;20291;-81
2022/03/08 12:18:48;;;;;;;7.05;5.25;;;;;;;15.46;25.00;101852.91;10341228;28;20061;-81
2022/03/08 12:23:52;;;;;;;9.25;5.53;;;;;;;15.12;24.07;101847.97;10356758;28;20390;-80
2022/03/08 12:29:15;;;;;;;7.72;4.55;;;;;;;14.61;24.66;101837.69;10348774;28;20042;-80
2022/03/08 12:34:15;;;;;;;9.73;5.15;;;;;;;13.79;25.18;101836.41;10373591;28;20026;-80
2022/03/08 12:39:45;;;;;;;7.15;4.90;;;;;;;14.67;25.44;101835.34;10342662;28;20058;-79
2022/03/08 12:44:53;;;;;;;8.35;4.45;;;;;;;13.84;26.18;101812.94;10374602;28;20065;-79
2022/03/08 12:49:54;;;;;;;7.35;4.45;;;;;;;14.13;24.90;101818.75;10347784;28;20560;-79
2022/03/08 12:54:55;;;;;;;5.63;4.63;;;;;;;14.03;25.97;101802.50;10316302;28;20058;-79
2022/03/08 12:59:55;;;;;;;6.53;5.53;;;;;;;13.92;25.61;101823.03;10301126;28;20046;-79
2022/03/08 13:05:02;;;;;;;5.88;4.28;;;;;;;14.37;25.38;101804.09;10332578;28;20073;-79
2022/03/08 13:10:03;;;;;;;8.48;5.10;;;;;;;14.93;24.62;101800.53;10315488;28;20121;-80
2022/03/08 13:15:15;;;;;;;10.32;4.45;;;;;;;14.41;24.73;101777.91;10298063;28;20038;-79
2022/03/08 13:20:47;;;;;;;7.38;6.15;;;;;;;13.74;26.16;101790.56;10316228;28;20022;-80
2022/03/08 13:25:49;;;;;;;11.82;5.03;;;;;;;14.43;25.21;101787.72;10314427;28;20042;-79
2022/03/08 13:30:54;;;;;;;7.10;3.85;;;;;;;15.08;24.20;101789.72;10314127;28;20048;-80
2022/03/08 13:36:06;;;;;;;10.20;4.32;;;;;;;15.16;23.61;101784.81;10314029;28;20037;-79
2022/03/08 13:41:08;;;;;;;8.07;4.37;;;;;;;14.74;24.69;101777.69;10310295;28;20040;-78
2022/03/08 13:46:12;;;;;;;8.75;4.88;;;;;;;14.23;24.71;101770.97;10332321;28;20054;-79
2022/03/08 13:51:12;;;;;;;13.20;4.53;;;;;;;14.18;24.47;101773.38;10317532;28;20038;-79
2022/03/08 13:56:14;;;;;;;5.82;4.10;;;;;;;14.67;24.05;101772.09;10313476;28;20532;-78
2022/03/08 14:01:23;;;;;;;6.20;4.30;;;;;;;14.80;24.42;101767.44;10314552;28;20486;-78
2022/03/08 14:06:24;;;;;;;7.72;4.97;;;;;;;14.77;23.06;101780.47;10300478;28;20058;-78
2022/03/08 14:11:25;;;;;;;7.53;4.85;;;;;;;14.59;23.56;101762.97;10305491;28;20069;-79
2022/03/08 14:16:46;;;;;;;6.63;3.53;;;;;;;14.46;24.64;101764.16;10351189;28;20029;-80
2022/03/08 14:21:47;;;;;;;7.47;4.13;;;;;;;13.74;23.56;101778.28;10321511;28;20022;-79
2022/03/08 14:27:08;;;;;;;10.60;5.37;;;;;;;13.49;25.01;101773.56;10354630;28;20091;-79
2022/03/08 14:32:10;;;;;;;6.07;4.35;;;;;;;14.27;23.69;101770.28;10353988;28;20030;-81
2022/03/08 14:37:14;;;;;;;8.05;4.28;;;;;;;14.16;23.68;101768.88;10321113;28;20091;-80
2022/03/08 14:42:15;;;;;;;11.75;4.13;;;;;;;14.16;23.64;101767.16;10322035;28;20367;-80
2022/03/08 14:47:25;;;;;;;6.30;3.73;;;;;;;14.49;24.23;101761.66;10336339;28;20401;-81
2022/03/08 14:52:29;;;;;;;6.28;3.72;;;;;;;14.79;22.90;101761.28;10363139;28;20422;-80
2022/03/08 14:57:30;;;;;;;9.27;4.40;;;;;;;14.03;23.67;101762.13;10344102;28;20100;-79
2022/03/08 15:02:31;;;;;;;8.13;5.07;;;;;;;13.79;23.21;101758.38;10379108;28;20125;-81
2022/03/08 15:07:31;;;;;;;6.38;4.20;;;;;;;13.62;23.69;101754.94;10343626;28;20074;-80
2022/03/08 15:12:32;;;;;;;9.32;4.75;;;;;;;13.68;23.46;101741.16;10360539;28;20053;-80
2022/03/08 15:17:32;;;;;;;7.78;5.07;;;;;;;13.79;23.38;101749.59;10375922;28;20026;-81
2022/03/08 15:22:33;;;;;;;10.02;5.03;;;;;;;13.30;24.04;101761.16;10360936;28;20462;-80
2022/03/08 15:27:33;;;;;;;6.38;4.72;;;;;;;13.18;24.82;101759.72;10345154;28;20040;-80
2022/03/08 15:32:34;;;;;;;7.20;4.55;;;;;;;13.47;25.63;101748.91;10377936;28;20119;-79
2022/03/08 15:37:34;;;;;;;6.88;4.57;;;;;;;11.97;26.53;101749.75;10358976;28;20496;-79
2022/03/08 15:42:35;;;;;;;7.28;5.00;;;;;;;10.79;27.67;101750.78;10342523;28;20029;-79
2022/03/08 15:47:37;;;;;;;6.18;4.50;;;;;;;10.67;28.47;101753.56;10353746;28;20080;-80
2022/03/08 15:52:42;;;;;;;6.68;4.57;;;;;;;10.17;29.62;101746.94;10347058;28;20057;-79
2022/03/08 15:57:42;;;;;;;6.50;4.18;;;;;;;10.05;29.51;101765.38;10338425;28;20441;-79
2022/03/08 16:02:43;;;;;;;10.25;4.82;;;;;;;9.69;29.61;101750.03;10376099;28;20129;-80
2022/03/08 16:07:43;;;;;;;9.23;5.43;;;;;;;9.55;30.65;101772.63;10351217;28;20482;-81
2022/03/08 16:12:44;;;;;;;6.82;4.68;;;;;;;9.17;31.14;101778.78;10318405;28;20591;-81
2022/03/08 16:17:45;;;;;;;8.43;5.10;;;;;;;8.73;32.16;101782.78;10340785;28;20481;-80
2022/03/08 16:22:45;;;;;;;7.82;4.93;;;;;;;8.35;31.55;101780.16;10336312;28;20101;-80
2022/03/08 16:27:46;;;;;;;13.68;6.28;;;;;;;8.10;32.50;101784.41;10331242;28;20069;-81
2022/03/08 16:32:47;;;;;;;9.35;4.97;;;;;;;7.93;33.81;101784.06;10306542;28;20057;-80
2022/03/08 16:37:47;;;;;;;8.32;4.88;;;;;;;7.70;33.80;101788.50;10326264;28;20081;-80
2022/03/08 16:42:48;;;;;;;9.63;5.18;;;;;;;7.46;34.67;101791.09;10299976;28;20113;-79
2022/03/08 16:47:52;;;;;;;9.57;6.07;;;;;;;7.35;34.16;101791.97;10360380;28;20060;-80
2022/03/08 16:52:53;;;;;;;10.52;5.35;;;;;;;7.24;34.89;101803.28;10307242;28;20077;-79
2022/03/08 16:57:53;;;;;;;16.33;5.93;;;;;;;7.04;36.21;101802.66;10346559;28;20049;-79
2022/03/08 17:02:54;;;;;;;12.35;6.85;;;;;;;6.89;36.42;101798.09;10284737;28;20057;-79
2022/03/08 17:07:56;;;;;;;12.05;6.85;;;;;;;6.71;36.55;101799.25;10299129;28;20036;-79
2022/03/08 17:12:56;;;;;;;12.80;5.40;;;;;;;6.57;37.17;101805.97;10337383;28;20402;-79
2022/03/08 17:17:57;;;;;;;12.07;6.93;;;;;;;6.37;37.63;101807.88;10335075;28;20296;-79
2022/03/08 17:22:57;;;;;;;14.57;7.03;;;;;;;6.20;37.80;101819.56;10315886;28;20033;-79
2022/03/08 17:27:58;;;;;;;9.60;6.10;;;;;;;6.01;38.37;101822.34;10338319;28;20038;-79
2022/03/08 17:32:59;;;;;;;8.77;5.93;;;;;;;5.86;38.81;101820.25;10354396;28;20132;-79
2022/03/08 17:37:59;;;;;;;11.23;6.13;;;;;;;5.70;39.36;101831.09;10371322;28;20049;-79
2022/03/08 17:43:00;;;;;;;13.00;6.25;;;;;;;5.51;39.79;101828.63;10337317;28;20420;-79
2022/03/08 17:48:00;;;;;;;16.67;7.47;;;;;;;5.34;40.15;101828.91;10308513;28;20042;-78
2022/03/08 17:53:01;;;;;;;14.38;7.85;;;;;;;5.27;40.88;101833.59;10302640;28;20035;-78
2022/03/08 17:58:02;;;;;;;10.13;7.68;;;;;;;5.17;40.98;101838.78;10304444;28;20031;-78
2022/03/08 18:03:02;;;;;;;14.38;7.00;;;;;;;5.08;41.60;101836.31;10293223;28;20034;-78
2022/03/08 18:08:03;;;;;;;11.02;7.45;;;;;;;4.97;41.81;101824.13;10328859;28;20449;-78
2022/03/08 18:13:03;;;;;;;16.08;7.78;;;;;;;5.08;42.70;101823.34;10293421;28;20109;-78
2022/03/08 18:18:04;;;;;;;16.50;6.88;;;;;;;4.88;42.03;101841.50;10272664;28;20621;-78
2022/03/08 18:23:04;;;;;;;9.48;6.35;;;;;;;4.73;42.15;101843.66;10296006;28;20027;-78
2022/03/08 18:28:05;;;;;;;10.68;6.90;;;;;;;4.60;42.87;101845.16;10288009;28;20069;-79
2022/03/08 18:33:06;;;;;;;16.52;5.28;;;;;;;4.51;42.51;101850.47;10289287;28;20397;-79
2022/03/08 18:38:07;;;;;;;13.00;7.00;;;;;;;4.28;43.65;101852.72;10289598;28;20034;-79
2022/03/08 18:43:07;;;;;;;13.30;7.80;;;;;;;3.95;44.98;101852.41;10304578;28;20118;-78
2022/03/08 18:48:08;;;;;;;11.25;7.38;;;;;;;3.55;46.94;101856.56;10359172;28;20052;-78
2022/03/08 18:53:08;;;;;;;11.32;7.05;;;;;;;3.37;46.80;101865.38;10340545;28;20038;-78
2022/03/08 18:58:09;;;;;;;12.85;7.45;;;;;;;3.14;47.07;101868.38;10354474;28;20046;-78
2022/03/08 19:03:10;;;;;;;17.65;8.25;;;;;;;2.96;47.46;101871.81;10333487;28;20471;-80
2022/03/08 19:08:10;;;;;;;12.55;7.43;;;;;;;3.07;47.66;101878.91;10329407;28;20047;-79
2022/03/08 19:13:11;;;;;;;15.38;6.15;;;;;;;2.78;49.12;101890.00;10327890;28;20103;-80
2022/03/08 19:18:12;;;;;;;9.93;6.43;;;;;;;2.35;49.66;101879.03;10311563;28;20050;-78
2022/03/08 19:23:12;;;;;;;14.20;6.63;;;;;;;2.07;51.57;101866.03;10311596;28;20073;-79
2022/03/08 19:28:15;;;;;;;11.07;6.75;;;;;;;2.11;50.86;101872.38;10351240;28;20123;-80
2022/03/08 19:33:16;;;;;;;16.35;6.75;;;;;;;2.16;51.25;101878.91;10366500;28;20054;-78
2022/03/08 19:38:16;;;;;;;14.63;8.13;;;;;;;2.25;51.36;101884.06;10358321;28;20529;-80
2022/03/08 19:43:17;;;;;;;13.38;6.47;;;;;;;2.19;51.65;101899.88;10338681;28;20061;-79
2022/03/08 19:48:18;;;;;;;13.43;6.78;;;;;;;1.93;52.40;101895.63;10301075;28;20062;-78
2022/03/08 19:53:18;;;;;;;14.45;9.13;;;;;;;1.55;53.59;101900.47;10350572;28;20494;-78
2022/03/08 19:58:19;;;;;;;16.20;9.00;;;;;;;1.36;54.93;101900.28;10345575;28;20096;-78
2022/03/08 20:03:19;;;;;;;15.73;8.27;;;;;;;1.25;53.60;101896.59;10336339;28;20076;-78
2022/03/08 20:08:20;;;;;;;12.93;8.18;;;;;;;1.16;56.63;101894.03;10323285;28;20037;-78
2022/03/08 20:13:21;;;;;;;11.68;7.25;;;;;;;1.11;55.03;101893.53;10376602;28;20084;-78
2022/03/08 20:18:22;;;;;;;23.97;8.80;;;;;;;0.90;56.48;101901.66;10353775;28;20038;-78
2022/03/08 20:23:23;;;;;;;16.10;9.48;;;;;;;0.54;57.11;101901.47;10339784;28;20304;-78
2022/03/08 20:28:23;;;;;;;12.63;7.30;;;;;;;0.37;58.26;101909.09;10338979;28;20085;-78
2022/03/08 20:33:24;;;;;;;12.15;7.07;;;;;;;0.13;58.67;101909.25;10315618;28;20042;-78
2022/03/08 20:38:25;;;;;;;18.13;7.35;;;;;;;-0.01;62.17;101914.59;10325714;28;20100;-78
2022/03/08 20:43:26;;;;;;;13.15;7.72;;;;;;;-0.31;61.94;101919.16;10325667;28;20058;-77
2022/03/08 20:48:26;;;;;;;13.43;7.85;;;;;;;-0.52;63.51;101924.56;10353956;28;20054;-79
2022/03/08 20:53:27;;;;;;;17.75;8.65;;;;;;;-0.41;61.93;101929.19;10340658;28;20089;-78
2022/03/08 20:58:28;;;;;;;13.00;8.05;;;;;;;-0.56;63.36;101925.91;10329936;28;20058;-79
2022/03/08 21:03:28;;;;;;;14.00;8.95;;;;;;;-0.43;62.81;101937.53;10332598;28;20109;-79
2022/03/08 21:08:29;;;;;;;11.98;8.18;;;;;;;-0.54;63.42;101941.47;10336836;28;20026;-78
2022/03/08 21:13:29;;;;;;;13.02;7.53;;;;;;;-0.40;61.81;101935.28;10372722;28;20045;-78
2022/03/08 21:18:30;;;;;;;16.52;10.20;;;;;;;-0.46;62.01;101944.16;10360559;28;20061;-78
2022/03/08 21:23:33;;;;;;;17.00;9.70;;;;;;;-0.74;63.20;101955.63;10338936;28;20116;-79
2022/03/08 21:28:34;;;;;;;19.58;9.98;;;;;;;-1.03;65.03;101937.88;10346758;28;20069;-79
2022/03/08 21:33:36;;;;;;;16.35;10.20;;;;;;;-1.09;66.52;101942.34;10314801;28;20054;-78
2022/03/08 21:38:36;;;;;;;19.55;11.23;;;;;;;-1.05;65.09;101936.81;10324453;28;20036;-78
2022/03/08 21:43:37;;;;;;;16.17;9.23;;;;;;;-1.11;66.29;101947.31;10354150;28;20044;-78
2022/03/08 21:48:37;;;;;;;15.93;9.63;;;;;;;-1.17;67.17;101954.34;10311053;28;20054;-78
2022/03/08 21:53:39;;;;;;;13.25;8.98;;;;;;;-1.25;66.59;101952.56;10315894;28;20049;-78
2022/03/08 21:58:39;;;;;;;13.57;9.52;;;;;;;-1.38;67.80;101953.75;10325696;28;20128;-78
2022/03/08 22:03:41;;;;;;;13.25;8.05;;;;;;;-1.50;68.04;101954.94;10355850;28;20061;-78
2022/03/08 22:08:42;;;;;;;13.68;9.05;;;;;;;-1.38;66.63;101956.31;10354024;28;20108;-78
2022/03/08 22:13:42;;;;;;;11.73;7.60;;;;;;;-1.41;66.44;101961.13;10372465;28;20119;-78
2022/03/08 22:18:43;;;;;;;10.32;7.18;;;;;;;-1.62;67.76;101964.72;10325727;28;20081;-79
2022/03/08 22:23:44;;;;;;;17.00;8.88;;;;;;;-1.92;69.03;101969.09;10331990;28;20142;-78
2022/03/08 22:28:45;;;;;;;17.33;8.95;;;;;;;-1.87;70.64;101969.59;10305194;28;20394;-78
2022/03/08 22:33:45;;;;;;;15.00;8.18;;;;;;;-1.78;69.33;101983.50;10354914;28;20034;-78
2022/03/08 22:38:46;;;;;;;14.43;8.38;;;;;;;-1.91;68.25;101995.66;10353479;28;20024;-77
2022/03/08 22:43:46;;;;;;;12.98;8.73;;;;;;;-2.18;68.66;102003.63;10372429;28;20040;-78
2022/03/08 22:48:47;;;;;;;19.17;9.27;;;;;;;-2.37;70.81;102002.38;10292649;28;20045;-78
2022/03/08 22:53:47;;;;;;;14.70;8.52;;;;;;;-2.63;71.37;102011.19;10330491;28;20066;-78
2022/03/08 22:58:48;;;;;;;13.27;8.47;;;;;;;-2.95;72.17;102024.56;10272485;28;20034;-78